createdAt,value
2018-03-08T00:00:56.366Z,78.72
2018-03-08T00:03:26.127Z,79.37
2018-03-08T00:05:55.958Z,78.81
2018-03-08T00:08:25.693Z,79.31
2018-03-08T00:10:55.460Z,79.25
2018-03-08T00:13:25.184Z,79.48
2018-03-08T00:15:55.023Z,79.91
2018-03-08T00:18:24.937Z,79.94
2018-03-08T00:20:54.796Z,80.00
2018-03-08T00:23:24.604Z,79.81
2018-03-08T00:25:54.528Z,79.60
2018-03-08T00:28:24.255Z,79.46
2018-03-08T00:30:53.980Z,79.53
2018-03-08T00:33:23.850Z,79.66
2018-03-08T00:35:54.345Z,79.42
2018-03-08T00:38:25.772Z,79.45
2018-03-08T00:40:55.492Z,79.48
2018-03-08T00:43:25.661Z,79.09
2018-03-08T00:45:55.467Z,79.14
2018-03-08T00:48:25.179Z,79.22
2018-03-08T00:50:55.052Z,78.63
2018-03-08T00:53:24.753Z,78.42
2018-03-08T00:55:54.547Z,78.58
2018-03-08T00:58:24.489Z,78.49
2018-03-08T01:00:54.277Z,78.26
2018-03-08T01:03:24.092Z,78.23
2018-03-08T01:05:54.648Z,78.20
2018-03-08T01:08:24.497Z,78.17
2018-03-08T01:10:54.276Z,77.96
2018-03-08T01:13:24.944Z,77.74
2018-03-08T01:15:54.735Z,77.53
2018-03-08T01:18:24.732Z,77.57
2018-03-08T01:20:54.470Z,77.12
2018-03-08T01:23:24.187Z,77.34
2018-03-08T01:25:54.071Z,76.91
2018-03-08T01:28:23.810Z,76.98
2018-03-08T01:30:53.646Z,76.95
2018-03-08T01:33:23.484Z,77.05
2018-03-08T01:35:56.929Z,76.47
2018-03-08T01:38:27.517Z,76.38
2018-03-08T01:40:57.228Z,76.38
2018-03-08T01:43:26.987Z,76.28
2018-03-08T01:45:56.759Z,75.91
2018-03-08T01:48:27.058Z,76.06
2018-03-08T01:50:57.553Z,76.08
2018-03-08T01:53:27.352Z,75.92
2018-03-08T01:55:57.057Z,75.97
2018-03-08T01:58:26.821Z,76.04
2018-03-08T02:00:59.396Z,75.79
2018-03-08T02:03:29.168Z,75.91
2018-03-08T02:05:58.887Z,75.78
2018-03-08T02:08:28.685Z,75.79
2018-03-08T02:10:58.460Z,75.83
2018-03-08T02:13:28.241Z,75.59
2018-03-08T02:15:58.022Z,75.31
2018-03-08T02:18:27.784Z,75.45
2018-03-08T02:20:57.528Z,75.25
2018-03-08T02:23:27.359Z,75.33
2018-03-08T02:25:57.849Z,75.56
2018-03-08T02:28:27.583Z,75.44
2018-03-08T02:30:57.305Z,75.38
2018-03-08T02:33:27.028Z,75.46
2018-03-08T02:35:56.858Z,75.39
2018-03-08T02:38:26.598Z,75.25
2018-03-08T02:40:56.461Z,75.56
2018-03-08T02:43:26.185Z,75.52
2018-03-08T02:45:55.914Z,75.35
2018-03-08T02:48:25.689Z,75.41
2018-03-08T02:50:55.489Z,74.91
2018-03-08T02:53:25.584Z,75.02
2018-03-08T02:55:55.364Z,74.75
2018-03-08T02:58:25.165Z,75.06
2018-03-08T03:00:54.925Z,75.94
2018-03-08T03:03:25.397Z,75.58
2018-03-08T03:05:55.129Z,75.45
2018-03-08T03:08:24.902Z,75.37
2018-03-08T03:10:55.380Z,75.53
2018-03-08T03:13:25.141Z,75.87
2018-03-08T03:15:55.347Z,76.00
2018-03-08T03:18:25.033Z,76.45
2018-03-08T03:20:55.547Z,76.31
2018-03-08T03:23:25.301Z,76.59
2018-03-08T03:25:55.032Z,76.41
2018-03-08T03:28:24.765Z,76.13
2018-03-08T03:30:54.695Z,76.05
2018-03-08T03:33:24.432Z,75.89
2018-03-08T03:35:54.228Z,75.85
2018-03-08T03:38:23.933Z,76.03
2018-03-08T03:40:54.643Z,76.33
2018-03-08T03:43:24.320Z,76.09
2018-03-08T03:45:54.137Z,75.77
2018-03-08T03:48:23.932Z,75.22
2018-03-08T03:50:54.524Z,75.21
2018-03-08T03:53:24.288Z,75.21
2018-03-08T03:55:54.013Z,74.80
2018-03-08T03:58:24.614Z,75.06
2018-03-08T04:00:54.395Z,75.28
2018-03-08T04:03:24.945Z,75.59
2018-03-08T04:05:54.669Z,75.57
2018-03-08T04:08:24.447Z,75.68
2018-03-08T04:10:54.200Z,75.69
2018-03-08T04:13:24.679Z,75.61
2018-03-08T04:15:54.422Z,75.87
2018-03-08T04:18:24.162Z,75.64
2018-03-08T04:20:54.051Z,75.61
2018-03-08T04:23:23.752Z,75.46
2018-03-08T04:25:53.579Z,75.33
2018-03-08T04:28:23.396Z,75.12
2018-03-08T04:30:53.149Z,75.48
2018-03-08T04:33:23.040Z,75.33
2018-03-08T04:35:52.783Z,75.20
2018-03-08T04:38:22.625Z,75.12
2018-03-08T04:40:52.579Z,75.16
2018-03-08T04:43:22.391Z,75.23
2018-03-08T04:45:52.226Z,74.85
2018-03-08T04:48:22.851Z,74.80
2018-03-08T04:50:52.614Z,74.82
2018-03-08T04:53:23.106Z,74.81
2018-03-08T04:55:53.031Z,75.05
2018-03-08T04:58:22.817Z,75.10
2018-03-08T05:00:52.637Z,75.41
2018-03-08T05:03:22.393Z,75.54
2018-03-08T05:05:52.131Z,75.71
2018-03-08T05:08:22.040Z,75.71
2018-03-08T05:10:51.792Z,75.58
2018-03-08T05:13:21.580Z,75.77
2018-03-08T05:15:51.555Z,75.37
2018-03-08T05:18:22.120Z,75.33
2018-03-08T05:20:51.933Z,75.80
2018-03-08T05:23:21.638Z,75.78
2018-03-08T05:25:52.142Z,75.66
2018-03-08T05:28:21.876Z,75.36
2018-03-08T05:30:51.616Z,75.45
2018-03-08T05:33:21.406Z,75.53
2018-03-08T05:35:51.172Z,75.54
2018-03-08T05:38:21.689Z,75.40
2018-03-08T05:40:51.541Z,75.52
2018-03-08T05:43:22.024Z,75.87
2018-03-08T05:45:51.741Z,75.10
2018-03-08T05:48:22.045Z,75.08
2018-03-08T05:50:51.776Z,74.96
2018-03-08T05:53:21.558Z,75.16
2018-03-08T05:55:51.353Z,75.11
2018-03-08T05:58:21.069Z,74.90
2018-03-08T06:00:50.919Z,74.98
2018-03-08T06:03:20.684Z,74.93
2018-03-08T06:05:50.462Z,74.95
2018-03-08T06:08:20.249Z,74.96
2018-03-08T06:10:49.949Z,74.83
2018-03-08T06:13:19.760Z,75.53
2018-03-08T06:15:50.236Z,74.93
2018-03-08T06:18:19.967Z,74.63
2018-03-08T06:20:50.124Z,74.27
2018-03-08T06:23:19.856Z,74.41
2018-03-08T06:25:49.991Z,74.49
2018-03-08T06:28:19.770Z,74.35
2018-03-08T06:30:49.530Z,74.54
2018-03-08T06:33:20.237Z,74.62
2018-03-08T06:35:49.949Z,74.68
2018-03-08T06:38:19.707Z,74.85
2018-03-08T06:40:49.474Z,74.81
2018-03-08T06:43:19.168Z,74.36
2018-03-08T06:45:49.613Z,74.40
2018-03-08T06:48:20.264Z,74.03
2018-03-08T06:50:50.764Z,73.94
2018-03-08T06:53:20.679Z,73.84
2018-03-08T06:55:50.440Z,73.43
2018-03-08T06:58:21.672Z,73.45
2018-03-08T07:00:51.354Z,73.09
2018-03-08T07:03:21.079Z,72.79
2018-03-08T07:05:50.812Z,72.51
2018-03-08T07:08:21.116Z,72.02
2018-03-08T07:10:50.834Z,71.98
2018-03-08T07:13:20.800Z,71.69
2018-03-08T07:15:50.861Z,71.49
2018-03-08T07:18:20.658Z,71.45
2018-03-08T07:20:50.374Z,70.89
2018-03-08T07:23:20.118Z,70.69
2018-03-08T07:25:49.779Z,70.18
2018-03-08T07:28:20.258Z,69.94
2018-03-08T07:30:50.420Z,69.77
2018-03-08T07:33:20.328Z,69.18
2018-03-08T07:35:50.040Z,68.71
2018-03-08T07:38:19.840Z,68.71
2018-03-08T07:40:49.624Z,68.74
2018-03-08T07:43:20.114Z,68.81
2018-03-08T07:45:50.219Z,68.56
2018-03-08T07:48:20.098Z,67.92
2018-03-08T07:50:49.772Z,67.99
2018-03-08T07:53:19.475Z,68.01
2018-03-08T07:55:50.069Z,67.68
2018-03-08T07:58:19.896Z,68.65
2018-03-08T08:00:49.943Z,68.85
2018-03-08T08:03:19.661Z,68.43
2018-03-08T08:07:04.606Z,67.87
2018-03-08T08:09:34.946Z,66.90
2018-03-08T08:12:04.733Z,66.95
2018-03-08T08:14:35.293Z,66.98
2018-03-08T08:17:06.086Z,66.80
2018-03-08T08:19:35.855Z,66.23
2018-03-08T08:22:05.746Z,65.91
2018-03-08T08:24:35.528Z,65.63
2018-03-08T08:27:05.568Z,65.24
2018-03-08T08:29:35.294Z,64.95
2018-03-08T08:32:05.060Z,64.89
2018-03-08T08:34:34.841Z,65.08
2018-03-08T08:37:04.582Z,65.54
2018-03-08T08:39:34.393Z,65.42
2018-03-08T08:42:04.146Z,65.54
2018-03-08T08:44:33.904Z,65.05
2018-03-08T08:47:03.696Z,64.35
2018-03-08T08:49:33.485Z,64.33
2018-03-08T08:52:03.237Z,64.12
2018-03-08T08:54:32.991Z,64.24
2018-03-08T08:57:02.784Z,63.79
2018-03-08T08:59:32.575Z,63.48
2018-03-08T09:02:02.292Z,63.18
2018-03-08T09:04:32.413Z,63.02
2018-03-08T09:07:02.300Z,63.10
2018-03-08T09:09:32.213Z,62.58
2018-03-08T09:12:02.713Z,62.47
2018-03-08T09:14:32.528Z,62.64
2018-03-08T09:17:02.350Z,62.92
2018-03-08T09:19:33.180Z,62.70
2018-03-08T09:22:02.908Z,63.14
2018-03-08T09:24:33.399Z,62.98
2018-03-08T09:27:03.232Z,62.79
2018-03-08T09:29:33.257Z,62.50
2018-03-08T09:32:03.262Z,61.53
2018-03-08T09:34:33.001Z,60.66
2018-03-08T09:37:03.108Z,59.76
2018-03-08T09:39:33.190Z,60.28
2018-03-08T09:42:03.696Z,60.89
2018-03-08T09:44:33.507Z,60.79
2018-03-08T09:47:03.256Z,60.66
2018-03-08T09:49:33.845Z,60.16
2018-03-08T09:52:03.754Z,59.87
2018-03-08T09:54:33.484Z,59.49
2018-03-08T09:57:03.172Z,59.40
2018-03-08T09:59:33.659Z,59.46
2018-03-08T10:02:03.519Z,59.39
2018-03-08T10:04:33.366Z,59.65
2018-03-08T10:07:04.004Z,59.91
2018-03-08T10:09:34.632Z,60.13
2018-03-08T10:12:04.359Z,59.97
2018-03-08T10:14:34.089Z,60.24
2018-03-08T10:17:04.643Z,60.54
2018-03-08T10:19:35.216Z,60.79
2018-03-08T10:22:04.945Z,61.75
2018-03-08T10:24:34.660Z,61.62
2018-03-08T10:27:04.380Z,61.76
2018-03-08T10:29:34.116Z,61.61
2018-03-08T10:32:03.918Z,61.83
2018-03-08T10:34:33.719Z,61.84
2018-03-08T10:37:03.464Z,61.43
2018-03-08T10:39:33.981Z,61.61
2018-03-08T10:42:03.763Z,61.14
2018-03-08T10:44:33.633Z,61.05
2018-03-08T10:47:03.513Z,60.55
2018-03-08T10:49:33.328Z,60.01
2018-03-08T10:52:03.083Z,59.59
2018-03-08T10:54:33.665Z,59.77
2018-03-08T10:57:03.379Z,59.74
2018-03-08T10:59:33.093Z,59.43
2018-03-08T11:02:03.321Z,58.94
2018-03-08T11:04:36.506Z,59.54
2018-03-08T11:07:06.996Z,59.17
2018-03-08T11:09:36.874Z,59.34
2018-03-08T11:12:07.414Z,59.27
2018-03-08T11:14:37.341Z,59.30
2018-03-08T11:17:07.991Z,60.00
2018-03-08T11:19:38.609Z,60.65
2018-03-08T11:22:08.332Z,60.90
2018-03-08T11:24:38.065Z,60.85
2018-03-08T11:27:08.554Z,60.88
2018-03-08T11:29:38.308Z,60.88
2018-03-08T11:32:08.497Z,60.88
2018-03-08T11:34:38.311Z,60.85
2018-03-08T11:37:08.103Z,61.04
2018-03-08T11:39:38.645Z,61.01
2018-03-08T11:42:09.277Z,61.14
2018-03-08T11:44:38.883Z,60.94
2018-03-08T11:47:08.612Z,61.45
2018-03-08T11:49:38.383Z,61.87
2018-03-08T11:52:08.105Z,62.09
2018-03-08T11:54:37.859Z,62.92
2018-03-08T11:57:07.563Z,63.71
2018-03-08T11:59:37.376Z,63.95
2018-03-08T12:02:07.346Z,64.01
2018-03-08T12:04:37.109Z,64.84
2018-03-08T12:07:06.924Z,66.29
2018-03-08T12:09:37.415Z,67.03
2018-03-08T12:12:07.301Z,67.98
2018-03-08T12:14:37.110Z,68.73
2018-03-08T12:17:07.741Z,70.25
2018-03-08T12:19:37.434Z,70.37
2018-03-08T12:22:07.175Z,69.98
2018-03-08T12:24:36.958Z,70.66
2018-03-08T12:27:06.764Z,71.29
2018-03-08T12:29:36.550Z,72.30
2018-03-08T12:32:06.343Z,71.18
2018-03-08T12:34:36.054Z,71.40
2018-03-08T12:37:05.830Z,71.59
2018-03-08T12:39:36.555Z,72.58
2018-03-08T12:42:06.342Z,72.78
2018-03-08T12:44:36.093Z,73.13
2018-03-08T12:47:06.075Z,74.00
2018-03-08T12:49:36.034Z,73.10
2018-03-08T12:52:05.865Z,73.73
2018-03-08T12:54:35.571Z,74.11
2018-03-08T12:57:06.296Z,73.70
2018-03-08T12:59:36.093Z,73.90
2018-03-08T13:02:06.588Z,74.06
2018-03-08T13:04:36.372Z,74.11
2018-03-08T13:07:06.241Z,74.64
2018-03-08T13:09:36.076Z,74.33
2018-03-08T13:12:05.864Z,75.00
2018-03-08T13:14:35.606Z,74.47
2018-03-08T13:17:06.181Z,75.13
2018-03-08T13:19:37.036Z,75.21
2018-03-08T13:22:07.607Z,74.80
2018-03-08T13:24:37.421Z,74.28
2018-03-08T13:27:07.184Z,74.65
2018-03-08T13:29:37.140Z,74.80
2018-03-08T13:32:07.732Z,75.31
2018-03-08T13:34:37.716Z,75.19
2018-03-08T13:37:07.463Z,74.94
2018-03-08T13:39:37.335Z,75.75
2018-03-08T13:42:07.237Z,76.17
2018-03-08T13:44:37.091Z,76.17
2018-03-08T13:47:06.937Z,76.91
2018-03-08T13:49:39.714Z,76.66
2018-03-08T13:52:09.565Z,77.99
2018-03-08T13:54:40.080Z,77.03
2018-03-08T13:57:09.915Z,79.92
2018-03-08T13:59:39.801Z,77.75
2018-03-08T14:02:09.644Z,78.17
2018-03-08T14:04:39.462Z,78.15
2018-03-08T14:07:09.225Z,77.78
2018-03-08T14:09:39.736Z,77.39
2018-03-08T14:12:09.516Z,78.04
2018-03-08T14:14:39.245Z,77.51
2018-03-08T14:17:09.165Z,77.50
2018-03-08T14:19:38.932Z,77.33
2018-03-08T14:22:08.736Z,76.16
2018-03-08T14:24:38.560Z,76.67
2018-03-08T14:27:08.364Z,76.86
2018-03-08T14:29:38.508Z,76.75
2018-03-08T14:32:08.690Z,76.45
2018-03-08T14:34:39.232Z,76.48
2018-03-08T14:37:09.744Z,76.73
2018-03-08T14:39:39.609Z,76.41
2018-03-08T14:42:09.356Z,76.74
2018-03-08T14:44:39.198Z,76.69
2018-03-08T14:47:09.063Z,77.12
2018-03-08T14:49:39.590Z,77.52
2018-03-08T14:52:09.338Z,77.31
2018-03-08T14:54:39.169Z,77.18
2018-03-08T14:57:08.890Z,77.45
2018-03-08T14:59:38.781Z,78.08
2018-03-08T15:02:08.624Z,77.79
2018-03-08T15:04:39.289Z,76.69
2018-03-08T15:07:09.076Z,76.37
2018-03-08T15:09:38.779Z,76.50
2018-03-08T15:12:08.535Z,76.75
2018-03-08T15:14:39.070Z,77.31
2018-03-08T15:17:09.796Z,76.91
2018-03-08T15:19:39.644Z,77.14
2018-03-08T15:22:09.516Z,75.84
2018-03-08T15:24:39.256Z,74.72
2018-03-08T15:27:09.136Z,74.04
2018-03-08T15:29:38.981Z,73.64
2018-03-08T15:32:08.723Z,73.68
2018-03-08T15:34:39.770Z,73.41
2018-03-08T15:37:09.608Z,72.01
2018-03-08T15:39:39.349Z,71.07
2018-03-08T15:42:09.377Z,71.76
2018-03-08T15:44:39.189Z,72.46
2018-03-08T15:47:08.999Z,73.64
2018-03-08T15:49:38.779Z,74.07
2018-03-08T15:52:08.683Z,73.92
2018-03-08T15:54:38.612Z,73.35
2018-03-08T15:57:08.409Z,72.48
2018-03-08T15:59:38.220Z,72.54
2018-03-08T16:02:08.621Z,72.94
2018-03-08T16:04:38.417Z,73.14
2018-03-08T16:07:15.808Z,71.94
2018-03-08T16:10:34.617Z,70.93
2018-03-08T16:13:04.492Z,70.56
2018-03-08T16:15:34.368Z,70.20
2018-03-08T16:18:04.100Z,69.30
2018-03-08T16:20:33.879Z,69.27
2018-03-08T16:23:04.485Z,69.32
2018-03-08T16:25:34.338Z,69.44
2018-03-08T16:28:04.104Z,69.67
2018-03-08T16:30:33.957Z,69.75
2018-03-08T16:33:04.821Z,70.16
2018-03-08T16:35:34.642Z,70.07
2018-03-08T16:38:04.407Z,69.90
2018-03-08T16:40:34.615Z,70.28
2018-03-08T16:43:04.628Z,68.97
2018-03-08T16:45:34.436Z,70.22
2018-03-08T16:48:04.210Z,70.55
2018-03-08T16:50:34.136Z,70.45
2018-03-08T16:53:03.912Z,70.79
2018-03-08T16:55:33.804Z,71.06
2018-03-08T16:58:03.714Z,71.51
2018-03-08T17:00:33.822Z,71.92
2018-03-08T17:03:04.386Z,72.00
2018-03-08T17:05:34.109Z,71.15
2018-03-08T17:08:03.956Z,70.84
2018-03-08T17:10:33.703Z,71.10
2018-03-08T17:13:03.490Z,71.26
2018-03-08T17:15:33.224Z,71.16
2018-03-08T17:18:03.195Z,70.81
2018-03-08T17:20:33.701Z,70.63
2018-03-08T17:23:03.625Z,70.92
2018-03-08T17:25:33.406Z,70.98
2018-03-08T17:28:03.913Z,71.44
2018-03-08T17:30:33.730Z,71.21
2018-03-08T17:33:03.690Z,71.11
2018-03-08T17:35:34.324Z,71.36
2018-03-08T17:38:04.942Z,70.40
2018-03-08T17:40:34.718Z,70.50
2018-03-08T17:43:04.529Z,70.81
2018-03-08T17:45:34.337Z,70.27
2018-03-08T17:48:04.949Z,70.57
2018-03-08T17:50:34.667Z,70.82
2018-03-08T17:53:04.666Z,70.98
2018-03-08T17:55:34.441Z,70.76
2018-03-08T17:58:04.281Z,70.46
2018-03-08T18:00:35.248Z,70.92
2018-03-08T18:03:05.070Z,70.69
2018-03-08T18:05:34.861Z,70.76
2018-03-08T18:08:04.698Z,70.25
2018-03-08T18:10:35.385Z,70.35
2018-03-08T18:13:05.793Z,70.19
2018-03-08T18:15:35.641Z,70.17
2018-03-08T18:18:05.544Z,70.69
2018-03-08T18:20:36.203Z,70.52
2018-03-08T18:23:06.101Z,70.40
2018-03-08T18:25:36.974Z,69.90
2018-03-08T18:28:06.900Z,70.06
2018-03-08T18:30:36.691Z,70.30
2018-03-08T18:33:06.596Z,69.86
2018-03-08T18:35:36.440Z,70.61
2018-03-08T18:38:06.600Z,70.67
2018-03-08T18:40:36.404Z,71.30
2018-03-08T18:43:07.146Z,72.02
2018-03-08T18:45:37.102Z,72.29
2018-03-08T18:48:06.917Z,72.68
2018-03-08T18:50:36.879Z,75.73
2018-03-08T18:53:06.739Z,78.51
2018-03-08T18:55:36.492Z,77.83
2018-03-08T18:58:19.585Z,77.87
2018-03-08T19:00:49.635Z,78.55
2018-03-08T19:03:20.246Z,79.34
2018-03-08T19:05:50.020Z,79.44
2018-03-08T19:08:19.958Z,79.19
2018-03-08T19:10:49.677Z,78.71
2018-03-08T19:13:19.432Z,77.86
2018-03-08T19:15:49.861Z,76.60
2018-03-08T19:18:19.764Z,76.89
2018-03-08T19:20:49.540Z,77.28
2018-03-08T19:23:19.325Z,77.38
2018-03-08T19:25:49.053Z,77.52
2018-03-08T19:28:18.836Z,76.37
2018-03-08T19:30:48.589Z,76.59
2018-03-08T19:33:18.439Z,76.86
2018-03-08T19:35:48.606Z,77.47
2018-03-08T19:38:19.153Z,78.03
2018-03-08T19:40:49.661Z,77.63
2018-03-08T19:43:19.388Z,78.26
2018-03-08T19:45:49.090Z,78.53
2018-03-08T19:48:18.848Z,78.40
2018-03-08T19:50:49.315Z,78.25
2018-03-08T19:53:20.007Z,78.03
2018-03-08T19:55:50.365Z,77.86
2018-03-08T19:58:20.130Z,78.01
2018-03-08T20:00:50.188Z,78.28
2018-03-08T20:03:20.052Z,78.23
2018-03-08T20:05:50.601Z,78.21
2018-03-08T20:08:20.459Z,78.48
2018-03-08T20:10:50.471Z,78.35
2018-03-08T20:13:20.395Z,78.30
2018-03-08T20:15:50.907Z,78.16
2018-03-08T20:18:21.483Z,78.25
2018-03-08T20:20:51.306Z,77.96
2018-03-08T20:23:21.526Z,77.66
2018-03-08T20:25:51.373Z,77.45
2018-03-08T20:28:21.397Z,76.77
2018-03-08T20:30:51.196Z,76.31
2018-03-08T20:33:21.753Z,76.42
2018-03-08T20:35:51.583Z,76.84
2018-03-08T20:38:21.301Z,76.46
2018-03-08T20:40:51.086Z,76.61
2018-03-08T20:43:21.688Z,76.32
2018-03-08T20:45:51.561Z,76.44
2018-03-08T20:48:22.266Z,76.57
2018-03-08T20:50:52.116Z,77.05
2018-03-08T20:53:21.974Z,77.03
2018-03-08T20:55:51.715Z,76.99
2018-03-08T20:58:21.678Z,77.01
2018-03-08T21:00:51.430Z,76.81
2018-03-08T21:03:22.025Z,77.07
2018-03-08T21:05:51.718Z,77.41
2018-03-08T21:08:21.456Z,77.85
2018-03-08T21:10:51.489Z,77.99
2018-03-08T21:13:21.329Z,78.15
2018-03-08T21:15:51.224Z,77.96
2018-03-08T21:18:20.921Z,77.83
2018-03-08T21:20:51.620Z,77.96
2018-03-08T21:23:22.513Z,77.54
2018-03-08T21:25:53.158Z,77.36
2018-03-08T21:28:22.897Z,77.50
2018-03-08T21:30:52.636Z,77.64
2018-03-08T21:33:22.500Z,77.19
2018-03-08T21:35:52.183Z,76.52
2018-03-08T21:38:21.942Z,76.50
2018-03-08T21:40:51.728Z,76.26
2018-03-08T21:43:21.399Z,75.69
2018-03-08T21:45:51.897Z,75.17
2018-03-08T21:48:21.694Z,74.79
2018-03-08T21:50:51.450Z,74.53
2018-03-08T21:53:21.422Z,73.87
2018-03-08T21:55:51.145Z,73.75
2018-03-08T21:58:20.844Z,73.42
2018-03-08T22:00:51.368Z,73.20
2018-03-08T22:03:21.110Z,72.87
2018-03-08T22:05:51.592Z,72.92
2018-03-08T22:08:21.285Z,73.17
2018-03-08T22:10:51.899Z,73.28
2018-03-08T22:13:21.665Z,72.95
2018-03-08T22:15:51.392Z,72.78
2018-03-08T22:18:21.446Z,72.48
2018-03-08T22:20:51.180Z,72.87
2018-03-08T22:23:20.860Z,72.61
2018-03-08T22:25:50.710Z,72.42
2018-03-08T22:28:20.600Z,72.49
2018-03-08T22:30:50.521Z,72.43
2018-03-08T22:33:21.100Z,72.41
2018-03-08T22:35:51.000Z,72.25
2018-03-08T22:38:20.631Z,72.00
2018-03-08T22:40:50.307Z,72.44
2018-03-08T22:43:20.232Z,72.16
2018-03-08T22:45:50.851Z,72.24
2018-03-08T22:48:20.686Z,72.37
2018-03-08T22:50:50.458Z,72.53
2018-03-08T22:53:20.425Z,71.92
2018-03-08T22:55:50.248Z,72.06
2018-03-08T22:58:20.063Z,72.00
2018-03-08T23:00:49.946Z,72.29
2018-03-08T23:03:24.405Z,71.72
2018-03-08T23:05:54.124Z,72.14
2018-03-08T23:08:23.840Z,72.35
2018-03-08T23:10:53.537Z,72.06
2018-03-08T23:13:23.233Z,72.16
2018-03-08T23:15:52.956Z,71.96
2018-03-08T23:18:22.735Z,72.40
2018-03-08T23:20:52.481Z,72.31
2018-03-08T23:23:22.184Z,72.69
2018-03-08T23:25:51.800Z,72.62
2018-03-08T23:28:21.389Z,72.59
2018-03-08T23:30:51.905Z,73.25
2018-03-08T23:33:21.633Z,72.88
2018-03-08T23:35:52.008Z,72.84
2018-03-08T23:38:21.708Z,72.86
2018-03-08T23:40:52.296Z,72.74
2018-03-08T23:43:22.088Z,73.03
2018-03-08T23:45:51.820Z,73.11
2018-03-08T23:48:21.512Z,72.90
2018-03-08T23:50:51.508Z,73.14
2018-03-08T23:53:21.405Z,73.31
2018-03-08T23:55:51.298Z,73.22
2018-03-08T23:58:21.044Z,72.92
